Pagrindinis puslapis
METAR-TAF:

METAR-TAF

Oro uostai :

Abidžanas, Dramblio Kaulo Krantas

platuma: 05-15N, ilguma: 003-56W, Aukštis: 7 m

Dabartinis oras

Ataskaita buvo paskelbta 35 minutes, ne 12:00 UTC
Vėjas 11 kt iš Pietų/Pietvakarių, svyruoja nuo Pietų ir Vakarų/Pietvakarių
Temperatūra 28°C
Drėgmė 74%
Slėgis 1013 hPa
Matomumas 10 km arba daugiau
Mažai debesys ne aukštis 1200 ft

METAR: DIAP 171200Z 21011KT 180V240 9999 FEW012 28/23 Q1013 NOSIG

Laikas: 12:35 (12:35 UTC)

Prognozė

Ataskaita buvo paskelbta 1 valandą ir 35 minutes, ne 11:00 UTC
Prognozė galioja nuo 17 metu 12 UTC su 18 metu 18 UTC
Vėjas 12 kt iš Pietvakarių
Matomumas: 8000 m
Išsisklaidę debesys ne aukštis 1200 ft
Laikinai
nuo 18 metu 04 UTC su 18 metu 08 UTC
Su prošvaistėmis ne aukštis 1200 ft
Laikinai
nuo 18 metu 13 UTC su 18 metu 18 UTC
Matomumas: 4000 m
Su prošvaistėmis ne aukštis 1200 ft
lietus

TAF: DIAP 171100Z 1712/1818 23012KT 8000 SCT012 TEMPO 1804/1808 BKN012 TEMPO 1813/1818 4000 RA BKN012

Orai ataskaitas ir orų prognozės (METAR, TAF).

turimą stotys yra geltonos ir raudonos taškus žemėlapyje.

Perkelti pele per norėdami pamatyti stoties vardą.

Tada spustelėkite, norėdami matyti oro stebėjimo ir prognozės.

Norėdami pakeisti žemėlapį: spustelėkite ant žalios mygtukų su juodo kryžiaus žemyn,; žalią mygtuką su brūkšneliu, jei norite nutolinti; arba žalių rodyklių gretimoms žemėlapius.


METAR-TAF: